createdAt,value
2023-04-09T00:00:14.942Z,101030.41
2023-04-09T00:00:37.025Z,101032.31
2023-04-09T00:01:07.914Z,101035.68
2023-04-09T00:01:31.972Z,101036.48
2023-04-09T00:01:54.368Z,101034.80
2023-04-09T00:02:16.241Z,101035.05
2023-04-09T00:02:38.505Z,101031.61
2023-04-09T00:03:00.874Z,101029.98
2023-04-09T00:03:22.928Z,101031.89
2023-04-09T00:03:45.229Z,101031.86
2023-04-09T00:04:08.202Z,101028.98
2023-04-09T00:04:29.987Z,101028.08
2023-04-09T00:04:51.857Z,101028.70
2023-04-09T00:05:13.987Z,101030.40
2023-04-09T00:05:39.146Z,101029.55
2023-04-09T00:06:01.236Z,101029.95
2023-04-09T00:06:23.125Z,101028.61
2023-04-09T00:06:45.229Z,101026.54
2023-04-09T00:07:06.864Z,101028.36
2023-04-09T00:07:28.666Z,101030.05
2023-04-09T00:07:50.574Z,101030.22
2023-04-09T00:08:12.863Z,101031.17
2023-04-09T00:08:37.012Z,101031.05
2023-04-09T00:08:58.803Z,101030.59
2023-04-09T00:09:23.744Z,101033.45
2023-04-09T00:09:45.628Z,101032.98
2023-04-09T00:10:08.236Z,101032.16
2023-04-09T00:10:30.951Z,101030.44
2023-04-09T00:10:53.059Z,101032.20
2023-04-09T00:11:15.218Z,101029.39
2023-04-09T00:11:37.517Z,101029.63
2023-04-09T00:11:59.209Z,101029.79
2023-04-09T00:12:20.986Z,101030.76
2023-04-09T00:12:43.216Z,101027.40
2023-04-09T00:13:05.206Z,101028.66
2023-04-09T00:13:38.398Z,101029.19
2023-04-09T00:14:01.109Z,101029.75
2023-04-09T00:14:22.996Z,101027.83
2023-04-09T00:14:45.214Z,101030.25
2023-04-09T00:15:09.626Z,101028.86
2023-04-09T00:15:32.981Z,101028.39
2023-04-09T00:15:58.648Z,101028.86
2023-04-09T00:16:20.453Z,101030.33
2023-04-09T00:16:42.321Z,101029.37
2023-04-09T00:17:04.283Z,101030.70
2023-04-09T00:17:26.196Z,101030.39
2023-04-09T00:17:47.890Z,101029.70
2023-04-09T00:18:09.735Z,101032.99
2023-04-09T00:18:32.757Z,101034.50
2023-04-09T00:18:55.798Z,101029.98
2023-04-09T00:19:17.545Z,101029.57
2023-04-09T00:19:39.334Z,101029.89
2023-04-09T00:20:01.078Z,101030.60
2023-04-09T00:20:22.662Z,101028.86
2023-04-09T00:20:44.687Z,101031.16
2023-04-09T00:21:08.000Z,101028.60
2023-04-09T00:21:29.896Z,101028.63
2023-04-09T00:21:52.185Z,101028.88
2023-04-09T00:22:14.592Z,101027.89
2023-04-09T00:22:36.910Z,101025.65
2023-04-09T00:22:58.812Z,101025.55
2023-04-09T00:23:20.771Z,101024.41
2023-04-09T00:23:43.666Z,101025.00
2023-04-09T00:24:05.652Z,101024.70
2023-04-09T00:24:27.437Z,101022.83
2023-04-09T00:24:49.429Z,101022.91
2023-04-09T00:25:11.214Z,101023.67
2023-04-09T00:25:32.995Z,101023.05
2023-04-09T00:25:54.783Z,101022.22
2023-04-09T00:26:16.406Z,101023.71
2023-04-09T00:26:38.453Z,101022.14
2023-04-09T00:27:04.122Z,101022.41
2023-04-09T00:27:25.916Z,101023.70
2023-04-09T00:27:47.808Z,101021.20
2023-04-09T00:28:09.476Z,101021.46
2023-04-09T00:28:32.302Z,101022.02
2023-04-09T00:28:56.425Z,101020.29
2023-04-09T00:29:18.428Z,101020.48
2023-04-09T00:29:41.123Z,101021.20
2023-04-09T00:30:03.518Z,101017.92
2023-04-09T00:30:27.956Z,101020.94
2023-04-09T00:30:50.361Z,101020.58
2023-04-09T00:31:13.073Z,101020.66
2023-04-09T00:31:35.644Z,101020.33
2023-04-09T00:31:57.553Z,101018.92
2023-04-09T00:32:19.334Z,101019.59
2023-04-09T00:32:41.217Z,101018.67
2023-04-09T00:33:03.125Z,101019.33
2023-04-09T00:33:25.226Z,101017.99
2023-04-09T00:33:50.663Z,101019.64
2023-04-09T00:34:12.351Z,101020.21
2023-04-09T00:34:34.130Z,101020.59
2023-04-09T00:34:56.633Z,101018.71
2023-04-09T00:35:18.339Z,101017.77
2023-04-09T00:35:40.614Z,101019.34
2023-04-09T00:36:02.615Z,101023.18
2023-04-09T00:36:26.958Z,101022.21
2023-04-09T00:36:49.031Z,101023.72
2023-04-09T00:37:10.824Z,101020.70
2023-04-09T00:37:32.553Z,101020.34
2023-04-09T00:37:54.386Z,101024.06
2023-04-09T00:38:16.044Z,101022.18
2023-04-09T00:38:37.848Z,101021.48
2023-04-09T00:39:01.713Z,101023.98
2023-04-09T00:39:23.809Z,101022.68
2023-04-09T00:39:47.035Z,101025.20
2023-04-09T00:40:09.082Z,101022.42
2023-04-09T00:40:32.029Z,101023.52
2023-04-09T00:40:53.879Z,101022.69
2023-04-09T00:41:16.986Z,101022.58
2023-04-09T00:41:38.877Z,101021.89
2023-04-09T00:42:03.591Z,101022.11
2023-04-09T00:42:26.026Z,101020.02
2023-04-09T00:42:47.707Z,101020.39
2023-04-09T00:43:09.336Z,101020.59
2023-04-09T00:43:31.071Z,101020.06
2023-04-09T00:43:52.713Z,101020.66
2023-04-09T00:44:15.563Z,101018.56
2023-04-09T00:44:38.576Z,101019.83
2023-04-09T00:45:01.741Z,101017.90
2023-04-09T00:45:23.785Z,101018.65
2023-04-09T00:45:46.521Z,101019.71
2023-04-09T00:46:08.630Z,101015.15
2023-04-09T00:46:32.036Z,101019.41
2023-04-09T00:46:53.882Z,101020.01
2023-04-09T00:47:15.778Z,101020.33
2023-04-09T00:47:37.832Z,101019.89
2023-04-09T00:47:59.961Z,101019.52
2023-04-09T00:48:21.941Z,101017.77
2023-04-09T00:48:43.623Z,101018.05
2023-04-09T00:49:05.663Z,101020.63
2023-04-09T00:49:27.427Z,101016.58
2023-04-09T00:49:49.185Z,101019.21
2023-04-09T00:50:11.117Z,101018.02
2023-04-09T00:50:32.858Z,101017.58
2023-04-09T00:50:55.251Z,101020.70
2023-04-09T00:51:17.033Z,101019.18
2023-04-09T00:51:40.503Z,101019.28
2023-04-09T00:52:02.241Z,101021.38
2023-04-09T00:52:24.129Z,101021.70
2023-04-09T00:52:46.000Z,101019.78
2023-04-09T00:53:08.361Z,101024.08
2023-04-09T00:53:30.717Z,101025.08
2023-04-09T00:53:52.797Z,101023.52
2023-04-09T00:54:15.546Z,101025.69
2023-04-09T00:54:37.289Z,101025.42
2023-04-09T00:54:59.176Z,101023.86
2023-04-09T00:55:20.781Z,101027.83
2023-04-09T00:55:42.368Z,101023.14
2023-04-09T00:56:07.098Z,101023.23
2023-04-09T00:56:33.982Z,101022.65
2023-04-09T00:56:56.892Z,101023.09
2023-04-09T00:57:18.818Z,101022.69
2023-04-09T00:57:40.850Z,101021.02
2023-04-09T00:58:03.274Z,101020.75
2023-04-09T00:58:24.881Z,101022.48
2023-04-09T00:58:46.735Z,101021.00
2023-04-09T00:59:08.418Z,101027.06
2023-04-09T00:59:30.617Z,101026.83
2023-04-09T00:59:52.599Z,101022.30
2023-04-09T01:00:15.218Z,101024.00
2023-04-09T01:00:46.722Z,101025.05
2023-04-09T01:01:08.586Z,101023.46
2023-04-09T01:01:31.366Z,101027.86
2023-04-09T01:01:54.318Z,101026.20
2023-04-09T01:02:17.355Z,101025.15
2023-04-09T01:02:40.589Z,101024.61
2023-04-09T01:03:03.451Z,101029.73
2023-04-09T01:03:26.335Z,101027.64
2023-04-09T01:03:48.837Z,101025.42
2023-04-09T01:04:11.352Z,101025.77
2023-04-09T01:04:33.503Z,101026.39
2023-04-09T01:04:55.642Z,101026.84
2023-04-09T01:05:17.630Z,101025.73
2023-04-09T01:05:59.741Z,101033.05
2023-04-09T01:06:31.470Z,101031.45
2023-04-09T01:06:58.508Z,101031.25
2023-04-09T01:07:24.346Z,101032.14
2023-04-09T01:07:46.233Z,101034.08
2023-04-09T01:08:27.142Z,101032.21
2023-04-09T01:08:51.758Z,101031.67
2023-04-09T01:09:19.130Z,101032.48
2023-04-09T01:09:47.736Z,101027.45
2023-04-09T01:10:09.722Z,101026.84
2023-04-09T01:10:35.496Z,101030.45
2023-04-09T01:11:06.585Z,101030.23
2023-04-09T01:11:38.707Z,101026.23
2023-04-09T01:12:20.632Z,101027.52
2023-04-09T01:12:54.268Z,101029.14
2023-04-09T01:13:19.850Z,101032.92
2023-04-09T01:14:04.748Z,101031.08
2023-04-09T01:14:30.315Z,101029.35
2023-04-09T01:15:11.230Z,101031.88
2023-04-09T01:15:33.728Z,101031.52
2023-04-09T01:15:56.434Z,101029.50
2023-04-09T01:16:18.341Z,101030.38
2023-04-09T01:16:42.282Z,101031.58
2023-04-09T01:17:05.174Z,101031.05
2023-04-09T01:17:31.101Z,101030.05
2023-04-09T01:17:59.843Z,101027.48
2023-04-09T01:18:23.098Z,101028.46
2023-04-09T01:18:56.333Z,101029.77
2023-04-09T01:19:27.320Z,101031.83
2023-04-09T01:20:03.835Z,101032.52
2023-04-09T01:20:35.641Z,101029.67
2023-04-09T01:20:57.936Z,101029.66
2023-04-09T01:21:21.056Z,101033.27
2023-04-09T01:21:42.863Z,101031.11
2023-04-09T01:22:05.233Z,101029.39
2023-04-09T01:22:42.051Z,101031.61
2023-04-09T01:23:15.436Z,101032.45
2023-04-09T01:23:57.326Z,101033.45
2023-04-09T01:24:26.677Z,101033.98
2023-04-09T01:25:06.974Z,101031.48
2023-04-09T01:25:37.557Z,101029.26
2023-04-09T01:26:11.723Z,101032.75
2023-04-09T01:26:41.504Z,101030.11
2023-04-09T01:27:04.796Z,101029.69
2023-04-09T01:27:43.797Z,101031.92
2023-04-09T01:28:08.210Z,101031.77
2023-04-09T01:28:33.466Z,101033.27
2023-04-09T01:28:56.075Z,101030.93
2023-04-09T01:29:18.068Z,101031.73
2023-04-09T01:29:50.584Z,101031.27
2023-04-09T01:30:12.477Z,101032.27
2023-04-09T01:30:34.596Z,101031.66
2023-04-09T01:31:02.488Z,101034.20
2023-04-09T01:31:30.718Z,101034.06
2023-04-09T01:31:52.395Z,101036.18
2023-04-09T01:32:15.438Z,101035.23
2023-04-09T01:32:39.464Z,101034.44
2023-04-09T01:33:03.062Z,101035.64
2023-04-09T01:33:26.071Z,101038.48
2023-04-09T01:33:47.668Z,101038.79
2023-04-09T01:34:09.578Z,101035.95
2023-04-09T01:34:33.779Z,101040.77
2023-04-09T01:34:55.805Z,101038.08
2023-04-09T01:35:17.552Z,101039.48
2023-04-09T01:35:40.093Z,101037.19
2023-04-09T01:36:02.096Z,101038.92
2023-04-09T01:36:24.134Z,101038.94
2023-04-09T01:36:48.781Z,101041.02
2023-04-09T01:37:11.690Z,101042.11
2023-04-09T01:37:33.381Z,101041.20
2023-04-09T01:37:57.102Z,101040.49
2023-04-09T01:38:19.714Z,101038.87
2023-04-09T01:38:42.208Z,101039.21
2023-04-09T01:39:03.993Z,101039.38
2023-04-09T01:39:26.592Z,101036.49
2023-04-09T01:39:48.307Z,101035.61
2023-04-09T01:40:10.678Z,101036.46
2023-04-09T01:40:32.894Z,101035.14
2023-04-09T01:40:55.305Z,101035.15
2023-04-09T01:41:18.363Z,101036.60
2023-04-09T01:41:40.469Z,101037.77
2023-04-09T01:42:03.381Z,101035.83
2023-04-09T01:42:25.277Z,101034.90
2023-04-09T01:42:52.574Z,101036.66
2023-04-09T01:43:15.177Z,101035.80
2023-04-09T01:43:38.905Z,101038.46
2023-04-09T01:44:01.304Z,101037.75
2023-04-09T01:44:23.701Z,101036.80
2023-04-09T01:44:45.895Z,101037.29
2023-04-09T01:45:08.393Z,101037.33
2023-04-09T01:45:30.797Z,101038.67
2023-04-09T01:45:53.012Z,101036.37
2023-04-09T01:46:14.887Z,101040.19
2023-04-09T01:46:36.732Z,101038.70
2023-04-09T01:46:58.647Z,101035.32
2023-04-09T01:47:20.840Z,101035.26
2023-04-09T01:47:43.013Z,101034.48
2023-04-09T01:48:05.533Z,101037.40
2023-04-09T01:48:28.680Z,101036.52
2023-04-09T01:48:52.297Z,101038.33
2023-04-09T01:49:14.367Z,101038.05
2023-04-09T01:49:37.082Z,101040.02
2023-04-09T01:49:59.059Z,101038.48
2023-04-09T01:50:21.079Z,101039.35
2023-04-09T01:50:42.832Z,101038.80
2023-04-09T01:51:05.375Z,101037.53
2023-04-09T01:51:28.855Z,101036.63
2023-04-09T01:51:50.958Z,101036.04
2023-04-09T01:52:12.938Z,101034.78
2023-04-09T01:52:34.621Z,101035.25
2023-04-09T01:52:56.503Z,101032.38
2023-04-09T01:53:18.803Z,101034.85
2023-04-09T01:53:41.846Z,101033.78
2023-04-09T01:54:08.513Z,101035.88
2023-04-09T01:54:30.192Z,101036.04
2023-04-09T01:54:51.879Z,101033.11
2023-04-09T01:55:13.553Z,101034.89
2023-04-09T01:55:35.451Z,101033.34
2023-04-09T01:56:00.801Z,101032.48
2023-04-09T01:56:22.386Z,101033.45
2023-04-09T01:56:45.598Z,101035.35
2023-04-09T01:57:07.895Z,101033.89
2023-04-09T01:57:30.499Z,101031.16
2023-04-09T01:57:52.285Z,101032.40
2023-04-09T01:58:18.813Z,101031.08
2023-04-09T01:58:40.665Z,101033.33
2023-04-09T01:59:02.665Z,101030.58
2023-04-09T01:59:24.435Z,101032.50
2023-04-09T01:59:46.217Z,101033.30
2023-04-09T02:00:08.931Z,101029.40
2023-04-09T02:00:39.706Z,101030.52
2023-04-09T02:01:21.710Z,101028.88
2023-04-09T02:01:47.712Z,101031.91
2023-04-09T02:02:10.706Z,101032.69
2023-04-09T02:02:36.800Z,101031.32
2023-04-09T02:03:02.988Z,101030.80
2023-04-09T02:03:26.195Z,101032.07
2023-04-09T02:03:53.890Z,101033.99
2023-04-09T02:04:27.982Z,101034.50
2023-04-09T02:04:50.718Z,101037.74
2023-04-09T02:05:12.782Z,101032.23
2023-04-09T02:05:36.174Z,101036.52
2023-04-09T02:06:15.532Z,101035.17
2023-04-09T02:06:48.203Z,101036.73
2023-04-09T02:07:28.804Z,101034.98
2023-04-09T02:07:55.703Z,101035.67
2023-04-09T02:08:18.717Z,101035.79
2023-04-09T02:08:41.963Z,101034.63
2023-04-09T02:09:03.718Z,101032.51
2023-04-09T02:09:27.035Z,101034.61
2023-04-09T02:09:48.716Z,101036.91
2023-04-09T02:10:11.530Z,101035.38
2023-04-09T02:10:33.513Z,101036.47
2023-04-09T02:10:56.217Z,101034.39
2023-04-09T02:11:18.010Z,101035.88
2023-04-09T02:11:41.239Z,101034.73
2023-04-09T02:12:11.842Z,101033.92
2023-04-09T02:12:40.337Z,101034.58
2023-04-09T02:13:05.392Z,101038.33
2023-04-09T02:13:27.164Z,101033.64
2023-04-09T02:13:50.801Z,101037.61
2023-04-09T02:14:12.587Z,101036.27
2023-04-09T02:14:35.085Z,101035.95
2023-04-09T02:14:57.277Z,101031.80
2023-04-09T02:15:19.810Z,101033.96
2023-04-09T02:15:42.806Z,101037.16
2023-04-09T02:16:05.436Z,101039.12
2023-04-09T02:16:27.426Z,101038.92
2023-04-09T02:16:49.174Z,101040.37
2023-04-09T02:17:10.950Z,101038.44
2023-04-09T02:17:33.195Z,101037.90
2023-04-09T02:17:55.271Z,101037.56
2023-04-09T02:18:35.228Z,101036.70
2023-04-09T02:18:57.114Z,101036.38
2023-04-09T02:19:38.533Z,101040.09
2023-04-09T02:20:02.567Z,101038.52
2023-04-09T02:20:28.553Z,101038.35
2023-04-09T02:20:50.539Z,101039.27
2023-04-09T02:21:18.149Z,101039.65
2023-04-09T02:21:40.172Z,101036.70
2023-04-09T02:22:03.765Z,101033.23
2023-04-09T02:22:25.398Z,101036.62
2023-04-09T02:22:47.228Z,101035.11
2023-04-09T02:23:08.914Z,101037.17
2023-04-09T02:23:32.742Z,101035.05
2023-04-09T02:23:57.799Z,101035.56
2023-04-09T02:24:19.687Z,101033.33
2023-04-09T02:24:41.617Z,101036.29
2023-04-09T02:25:03.485Z,101033.86
2023-04-09T02:25:26.168Z,101038.17
2023-04-09T02:25:48.271Z,101034.40
2023-04-09T02:26:10.346Z,101033.45
2023-04-09T02:26:35.303Z,101032.27
2023-04-09T02:26:57.258Z,101030.58
2023-04-09T02:27:20.200Z,101034.86
2023-04-09T02:27:43.645Z,101029.90
2023-04-09T02:28:05.545Z,101030.85
2023-04-09T02:28:27.893Z,101034.55
2023-04-09T02:28:50.795Z,101032.56
2023-04-09T02:29:12.731Z,101035.38
2023-04-09T02:29:36.540Z,101033.81
2023-04-09T02:29:58.316Z,101034.67
2023-04-09T02:30:20.306Z,101032.27
2023-04-09T02:30:42.257Z,101034.20
2023-04-09T02:31:05.029Z,101035.98
2023-04-09T02:31:26.899Z,101037.80
2023-04-09T02:31:52.555Z,101034.67
2023-04-09T02:32:15.069Z,101034.39
2023-04-09T02:32:38.307Z,101035.52
2023-04-09T02:33:03.237Z,101035.42
2023-04-09T02:33:25.249Z,101036.70
2023-04-09T02:33:50.419Z,101038.22
2023-04-09T02:34:12.093Z,101039.02
2023-04-09T02:34:35.379Z,101038.39
2023-04-09T02:34:58.186Z,101039.33
2023-04-09T02:35:20.179Z,101037.48
2023-04-09T02:35:42.378Z,101037.40
2023-04-09T02:36:05.243Z,101039.78
2023-04-09T02:36:27.483Z,101040.23
2023-04-09T02:36:50.291Z,101041.70
2023-04-09T02:37:11.958Z,101039.11
2023-04-09T02:37:33.745Z,101041.34
2023-04-09T02:37:55.939Z,101040.67
2023-04-09T02:38:17.656Z,101040.52
2023-04-09T02:38:40.230Z,101040.61
2023-04-09T02:39:05.083Z,101039.68
2023-04-09T02:39:30.337Z,101038.69
2023-04-09T02:39:52.326Z,101038.77
2023-04-09T02:40:16.263Z,101037.80
2023-04-09T02:40:37.990Z,101039.58
2023-04-09T02:41:00.038Z,101041.63
2023-04-09T02:41:22.123Z,101039.44
2023-04-09T02:41:44.120Z,101040.19
2023-04-09T02:42:07.434Z,101042.58
2023-04-09T02:42:29.732Z,101039.84
2023-04-09T02:42:52.433Z,101043.05
2023-04-09T02:43:14.221Z,101038.98
2023-04-09T02:43:36.092Z,101040.20
2023-04-09T02:43:57.730Z,101041.05
2023-04-09T02:44:20.391Z,101041.80
2023-04-09T02:44:43.810Z,101042.48
2023-04-09T02:45:14.490Z,101044.21
2023-04-09T02:45:37.915Z,101043.88
2023-04-09T02:45:59.933Z,101045.52
2023-04-09T02:46:24.768Z,101047.30
2023-04-09T02:46:46.692Z,101047.34
2023-04-09T02:47:08.445Z,101046.18
2023-04-09T02:47:33.340Z,101046.55
2023-04-09T02:47:55.550Z,101048.63
2023-04-09T02:48:18.349Z,101045.66
2023-04-09T02:48:40.883Z,101050.52
2023-04-09T02:49:03.586Z,101049.91
2023-04-09T02:49:25.276Z,101046.05
2023-04-09T02:49:47.056Z,101050.25
2023-04-09T02:50:08.942Z,101049.02
2023-04-09T02:50:31.461Z,101050.95
2023-04-09T02:50:53.227Z,101049.73
2023-04-09T02:51:15.835Z,101050.82
2023-04-09T02:51:38.439Z,101051.40
2023-04-09T02:52:04.101Z,101051.47
2023-04-09T02:52:26.854Z,101056.26
2023-04-09T02:52:49.820Z,101055.76
2023-04-09T02:53:12.009Z,101056.54
2023-04-09T02:53:34.820Z,101057.97
2023-04-09T02:53:57.116Z,101057.45
2023-04-09T02:54:19.718Z,101056.41
2023-04-09T02:54:42.016Z,101059.46
2023-04-09T02:55:05.029Z,101058.84
2023-04-09T02:55:27.061Z,101058.30
2023-04-09T02:55:49.227Z,101060.06
2023-04-09T02:56:11.000Z,101059.41
2023-04-09T02:56:33.304Z,101061.39
2023-04-09T02:56:55.731Z,101057.21
2023-04-09T02:57:17.576Z,101060.75
2023-04-09T02:57:41.611Z,101063.40
2023-04-09T02:58:03.906Z,101064.63
2023-04-09T02:58:26.874Z,101064.68
2023-04-09T02:58:53.632Z,101063.98
2023-04-09T02:59:16.831Z,101065.08
2023-04-09T02:59:40.247Z,101069.87
2023-04-09T03:00:02.035Z,101067.58
2023-04-09T03:00:24.231Z,101067.95
2023-04-09T03:00:46.831Z,101067.92
2023-04-09T03:01:08.651Z,101064.92
2023-04-09T03:01:31.590Z,101064.06
2023-04-09T03:01:54.026Z,101071.68
2023-04-09T03:02:15.940Z,101068.45
2023-04-09T03:02:38.360Z,101065.33
2023-04-09T03:03:00.351Z,101067.95
2023-04-09T03:03:22.382Z,101067.77
2023-04-09T03:03:45.180Z,101068.61
2023-04-09T03:04:07.112Z,101068.56
2023-04-09T03:04:29.378Z,101068.14
2023-04-09T03:04:52.495Z,101066.65
2023-04-09T03:05:14.287Z,101070.33
2023-04-09T03:05:36.262Z,101068.98
2023-04-09T03:05:57.948Z,101067.05
2023-04-09T03:06:19.705Z,101069.91
2023-04-09T03:06:41.418Z,101068.87
2023-04-09T03:07:06.677Z,101071.36
2023-04-09T03:08:14.801Z,101069.11
2023-04-09T03:08:39.058Z,101071.54
2023-04-09T03:09:02.660Z,101068.38
2023-04-09T03:09:26.087Z,101073.10
2023-04-09T03:09:49.292Z,101073.90
2023-04-09T03:10:13.024Z,101074.75
2023-04-09T03:10:36.758Z,101071.14
2023-04-09T03:11:00.645Z,101077.79
2023-04-09T03:11:23.807Z,101075.14
2023-04-09T03:11:47.011Z,101075.08
2023-04-09T03:12:10.085Z,101077.52
2023-04-09T03:12:33.238Z,101074.83
2023-04-09T03:12:56.559Z,101075.86
2023-04-09T03:13:19.777Z,101076.41
2023-04-09T03:13:42.835Z,101077.09
2023-04-09T03:14:08.966Z,101074.39
2023-04-09T03:14:35.214Z,101077.36
2023-04-09T03:14:58.884Z,101077.15
2023-04-09T03:15:21.991Z,101076.80
2023-04-09T03:15:46.355Z,101077.45
2023-04-09T03:16:12.046Z,101076.59
2023-04-09T03:16:35.658Z,101076.71
2023-04-09T03:16:58.982Z,101076.14
2023-04-09T03:17:24.927Z,101079.27
2023-04-09T03:17:48.068Z,101077.95
2023-04-09T03:18:11.260Z,101076.45
2023-04-09T03:18:34.677Z,101078.77
2023-04-09T03:18:57.701Z,101078.65
2023-04-09T03:19:20.906Z,101076.90
2023-04-09T03:19:44.136Z,101077.77
2023-04-09T03:20:07.760Z,101076.90
2023-04-09T03:20:39.873Z,101080.80
2023-04-09T03:21:06.761Z,101078.58
2023-04-09T03:21:32.233Z,101082.28
2023-04-09T03:21:55.750Z,101081.63
2023-04-09T03:22:21.023Z,101087.30
2023-04-09T03:22:46.862Z,101082.98
2023-04-09T03:23:19.719Z,101083.23
2023-04-09T03:23:43.856Z,101085.10
2023-04-09T03:24:07.289Z,101083.98
2023-04-09T03:24:31.722Z,101085.43
2023-04-09T03:24:57.389Z,101086.47
2023-04-09T03:25:21.064Z,101086.27
2023-04-09T03:25:44.570Z,101087.53
2023-04-09T03:26:09.367Z,101087.36
2023-04-09T03:26:40.484Z,101086.17
2023-04-09T03:27:04.722Z,101087.84
2023-04-09T03:27:29.783Z,101087.51
2023-04-09T03:27:55.247Z,101087.90
2023-04-09T03:28:31.531Z,101088.10
2023-04-09T03:28:55.298Z,101087.80
2023-04-09T03:29:19.213Z,101087.27
2023-04-09T03:29:43.232Z,101088.48
2023-04-09T03:30:06.669Z,101091.18
2023-04-09T03:30:39.496Z,101091.55
2023-04-09T03:31:02.732Z,101092.80
2023-04-09T03:31:27.293Z,101092.67
2023-04-09T03:31:50.993Z,101093.77
2023-04-09T03:32:13.999Z,101092.23
2023-04-09T03:32:37.760Z,101095.58
2023-04-09T03:33:01.228Z,101094.56
2023-04-09T03:33:25.819Z,101093.94
2023-04-09T03:33:54.232Z,101098.34
2023-04-09T03:34:17.756Z,101099.59
2023-04-09T03:34:45.060Z,101096.33
2023-04-09T03:35:08.460Z,101095.38
2023-04-09T03:35:32.659Z,101092.84
2023-04-09T03:35:57.815Z,101091.35
2023-04-09T03:36:31.432Z,101093.61
2023-04-09T03:37:06.305Z,101095.38
2023-04-09T03:37:30.544Z,101094.48
2023-04-09T03:37:53.797Z,101091.21
2023-04-09T03:38:17.596Z,101090.17
2023-04-09T03:38:40.706Z,101089.33
2023-04-09T03:39:07.842Z,101091.65
2023-04-09T03:39:33.475Z,101089.26
2023-04-09T03:40:02.216Z,101089.73
2023-04-09T03:40:27.495Z,101091.27
2023-04-09T03:40:53.658Z,101091.37
2023-04-09T03:41:17.794Z,101093.83
2023-04-09T03:41:42.652Z,101091.68
2023-04-09T03:42:09.137Z,101091.33
2023-04-09T03:42:39.519Z,101094.15
2023-04-09T03:43:04.688Z,101093.83
2023-04-09T03:43:28.520Z,101093.13
2023-04-09T03:43:52.229Z,101092.77
2023-04-09T03:44:17.700Z,101093.20
2023-04-09T03:44:55.032Z,101093.86
2023-04-09T03:45:29.392Z,101093.55
2023-04-09T03:45:58.765Z,101093.77
2023-04-09T03:46:23.036Z,101093.89
2023-04-09T03:46:46.571Z,101091.77
2023-04-09T03:47:11.768Z,101095.48
2023-04-09T03:47:35.828Z,101095.33
2023-04-09T03:47:59.663Z,101099.67
2023-04-09T03:48:23.157Z,101096.79
2023-04-09T03:48:46.776Z,101098.07
2023-04-09T03:49:10.100Z,101097.70
2023-04-09T03:49:36.913Z,101097.91
2023-04-09T03:50:20.701Z,101094.92
2023-04-09T03:50:46.758Z,101098.03
2023-04-09T03:51:13.443Z,101101.36
2023-04-09T03:51:44.732Z,101097.64
2023-04-09T03:52:09.691Z,101101.81
2023-04-09T03:52:35.474Z,101095.48
2023-04-09T03:53:01.710Z,101100.64
2023-04-09T03:53:25.582Z,101097.20
2023-04-09T03:53:50.638Z,101096.06
2023-04-09T03:54:14.161Z,101095.75
2023-04-09T03:54:37.888Z,101102.20
2023-04-09T03:55:05.211Z,101100.08
2023-04-09T03:55:28.310Z,101097.80
2023-04-09T03:55:52.036Z,101098.14
2023-04-09T03:56:19.665Z,101098.63
2023-04-09T03:56:42.964Z,101098.06
2023-04-09T03:57:11.810Z,101097.53
2023-04-09T03:57:41.473Z,101098.77
2023-04-09T03:58:08.788Z,101100.75
2023-04-09T03:58:33.423Z,101098.21
2023-04-09T03:58:57.155Z,101100.49
2023-04-09T03:59:24.671Z,101100.52
2023-04-09T03:59:48.608Z,101098.17
2023-04-09T04:00:13.244Z,101099.80
2023-04-09T04:00:57.426Z,101102.45
2023-04-09T04:01:36.332Z,101101.02
2023-04-09T04:01:59.776Z,101105.24
2023-04-09T04:02:27.076Z,101100.81
2023-04-09T04:02:56.800Z,101104.91
2023-04-09T04:03:42.658Z,101102.58
2023-04-09T04:04:14.042Z,101107.49
2023-04-09T04:04:41.769Z,101104.80
2023-04-09T04:05:07.001Z,101106.59
2023-04-09T04:05:33.465Z,101105.55
2023-04-09T04:06:01.452Z,101104.29
2023-04-09T04:06:28.903Z,101107.00
2023-04-09T04:07:12.675Z,101107.39
2023-04-09T04:07:44.173Z,101109.10
2023-04-09T04:08:10.745Z,101105.55
2023-04-09T04:08:34.283Z,101107.16
2023-04-09T04:08:57.605Z,101106.80
2023-04-09T04:09:28.197Z,101107.90
2023-04-09T04:09:58.674Z,101106.33
2023-04-09T04:10:22.092Z,101106.85
2023-04-09T04:10:48.708Z,101104.12
2023-04-09T04:11:13.637Z,101105.92
2023-04-09T04:11:42.705Z,101108.04
2023-04-09T04:12:06.891Z,101104.40
2023-04-09T04:12:41.396Z,101106.02
2023-04-09T04:13:10.594Z,101106.09
2023-04-09T04:13:45.627Z,101107.04
2023-04-09T04:14:09.951Z,101106.51
2023-04-09T04:14:33.699Z,101106.16
2023-04-09T04:15:01.100Z,101106.55
2023-04-09T04:15:47.622Z,101108.05
2023-04-09T04:16:11.125Z,101109.67
2023-04-09T04:16:35.217Z,101108.11
2023-04-09T04:16:59.117Z,101109.13
2023-04-09T04:17:25.203Z,101111.57
2023-04-09T04:17:50.164Z,101110.95
2023-04-09T04:18:33.309Z,101113.77
2023-04-09T04:18:58.874Z,101112.36
2023-04-09T04:19:22.915Z,101115.19
2023-04-09T04:19:47.149Z,101113.98
2023-04-09T04:20:10.984Z,101114.70
2023-04-09T04:21:03.172Z,101114.08
2023-04-09T04:21:46.709Z,101114.73
2023-04-09T04:22:10.847Z,101116.95
2023-04-09T04:22:36.107Z,101113.04
2023-04-09T04:23:00.960Z,101116.76
2023-04-09T04:23:24.279Z,101115.48
2023-04-09T04:24:13.066Z,101115.35
2023-04-09T04:24:37.303Z,101114.71
2023-04-09T04:25:00.947Z,101116.46
2023-04-09T04:25:24.450Z,101115.98
2023-04-09T04:25:47.872Z,101114.77
2023-04-09T04:26:15.311Z,101116.95
2023-04-09T04:26:39.842Z,101116.79
2023-04-09T04:27:03.249Z,101118.60
2023-04-09T04:27:30.146Z,101114.23
2023-04-09T04:27:55.209Z,101116.34
2023-04-09T04:28:20.910Z,101116.17
2023-04-09T04:28:44.194Z,101116.95
2023-04-09T04:29:10.586Z,101120.48
2023-04-09T04:29:44.637Z,101121.23
2023-04-09T04:30:36.287Z,101123.05
2023-04-09T04:31:02.569Z,101120.96
2023-04-09T04:31:29.330Z,101123.45
2023-04-09T04:31:54.344Z,101123.61
2023-04-09T04:32:20.915Z,101123.55
2023-04-09T04:32:44.778Z,101124.49
2023-04-09T04:33:08.379Z,101124.52
2023-04-09T04:33:44.908Z,101122.90
2023-04-09T04:34:11.164Z,101124.12
2023-04-09T04:34:34.993Z,101127.09
2023-04-09T04:35:03.881Z,101125.41
2023-04-09T04:35:27.272Z,101125.08
2023-04-09T04:35:51.734Z,101126.84
2023-04-09T04:36:29.035Z,101125.08
2023-04-09T04:36:57.470Z,101125.66
2023-04-09T04:37:24.264Z,101127.89
2023-04-09T04:37:51.469Z,101128.56
2023-04-09T04:38:16.229Z,101126.27
2023-04-09T04:38:39.776Z,101121.48
2023-04-09T04:39:05.714Z,101120.79
2023-04-09T04:39:38.241Z,101126.83
2023-04-09T04:40:07.183Z,101124.95
2023-04-09T04:40:31.216Z,101126.41
2023-04-09T04:40:56.699Z,101125.52
2023-04-09T04:41:21.039Z,101125.58
2023-04-09T04:41:49.460Z,101126.31
2023-04-09T04:42:17.281Z,101125.42